Time;durP1;ratioP1;P1;durP2;ratioP2;P2;SDS_P1;SDS_P2;PMS_P1;PMS_P2;Temp;Humidity;BMP_temperature;BMP_pressure;BME280_temperature;BME280_humidity;BME280_pressure;Samples;Min_cycle;Max_cycle;Signal;HPM_P1;HPM_P2
2023/02/04 00:03:39;;;;;;;2.38;1.00;;;15.30;68.80;;;;;;10407354;28;20037;-58
2023/02/04 00:08:40;;;;;;;2.00;0.85;;;15.30;68.80;;;;;;10406788;28;20423;-56
2023/02/04 00:13:40;;;;;;;2.80;1.13;;;15.30;68.80;;;;;;10422360;28;20099;-57
2023/02/04 00:18:41;;;;;;;4.38;1.10;;;15.20;68.70;;;;;;10420991;28;20130;-59
2023/02/04 00:23:42;;;;;;;3.60;0.90;;;15.20;68.60;;;;;;10429067;28;20022;-58
2023/02/04 00:28:42;;;;;;;2.38;0.88;;;15.20;68.60;;;;;;10418055;28;20037;-58
2023/02/04 00:33:43;;;;;;;2.33;0.95;;;15.20;68.50;;;;;;10388274;28;20572;-58
2023/02/04 00:38:44;;;;;;;2.67;1.13;;;15.20;68.50;;;;;;10431073;28;20049;-58
2023/02/04 00:43:45;;;;;;;2.20;1.30;;;15.20;68.50;;;;;;10417792;28;20052;-57
2023/02/04 00:48:45;;;;;;;2.50;1.00;;;15.20;68.50;;;;;;10405006;28;20554;-58
2023/02/04 00:53:46;;;;;;;4.82;1.00;;;15.10;68.40;;;;;;10415518;28;20548;-58
2023/02/04 00:58:47;;;;;;;2.92;0.90;;;15.10;68.40;;;;;;10403813;28;20052;-58
2023/02/04 01:03:47;;;;;;;2.25;0.75;;;15.20;68.50;;;;;;10405242;28;20056;-58
2023/02/04 01:08:48;;;;;;;2.03;0.80;;;15.10;68.50;;;;;;10402879;28;20408;-57
2023/02/04 01:13:48;;;;;;;2.30;0.90;;;15.10;68.40;;;;;;10403620;28;20703;-58
2023/02/04 01:18:50;;;;;;;2.50;1.13;;;15.10;68.10;;;;;;10405265;28;20076;-58
2023/02/04 01:23:51;;;;;;;2.35;1.13;;;15.10;68.10;;;;;;10417185;28;20017;-57
2023/02/04 01:28:52;;;;;;;2.17;0.85;;;15.10;68.00;;;;;;10403214;28;20040;-58
2023/02/04 01:33:52;;;;;;;2.38;1.27;;;15.10;68.10;;;;;;10403371;28;20021;-57
2023/02/04 01:38:53;;;;;;;2.20;0.82;;;15.10;68.10;;;;;;10404467;28;20483;-56
2023/02/04 01:43:54;;;;;;;4.68;0.93;;;15.10;68.20;;;;;;10428263;28;20090;-58
2023/02/04 01:48:55;;;;;;;2.53;0.80;;;15.10;68.20;;;;;;10442680;28;20032;-57
2023/02/04 01:53:55;;;;;;;2.88;1.08;;;15.00;68.10;;;;;;10444962;28;20421;-58
2023/02/04 01:58:57;;;;;;;2.53;0.82;;;15.00;68.10;;;;;;10443816;28;20017;-56
2023/02/04 02:03:59;;;;;;;2.13;0.90;;;15.00;68.10;;;;;;10443845;28;20021;-57
2023/02/04 02:09:00;;;;;;;1.63;0.70;;;15.00;68.10;;;;;;10443592;28;20033;-58
2023/02/04 02:14:02;;;;;;;1.90;0.82;;;15.00;68.20;;;;;;10443557;28;20025;-58
2023/02/04 02:19:06;;;;;;;2.90;0.90;;;15.00;68.20;;;;;;10426520;28;20079;-57
2023/02/04 02:24:34;;;;;;;4.68;0.90;;;15.00;68.20;;;;;;10429564;28;20064;-58
2023/02/04 02:29:38;;;;;;;1.98;0.82;;;14.90;68.30;;;;;;10432633;28;20057;-58
2023/02/04 02:34:40;;;;;;;2.08;0.63;;;15.00;68.40;;;;;;10428763;28;20029;-58
2023/02/04 02:39:44;;;;;;;2.05;1.23;;;15.00;68.40;;;;;;10416157;28;20018;-57
2023/02/04 02:44:47;;;;;;;2.85;1.08;;;14.90;68.30;;;;;;10435127;28;20025;-58
2023/02/04 02:49:50;;;;;;;3.75;0.90;;;14.90;68.30;;;;;;10431056;28;20033;-59
2023/02/04 02:54:52;;;;;;;1.88;0.80;;;14.90;68.30;;;;;;10427590;28;20091;-58
2023/02/04 02:59:53;;;;;;;5.35;1.23;;;14.90;68.80;;;;;;10408290;28;20014;-58
2023/02/04 03:04:57;;;;;;;3.33;1.00;;;14.90;68.70;;;;;;10422560;28;20022;-56
2023/02/04 03:09:58;;;;;;;2.58;0.75;;;14.90;68.10;;;;;;10407715;28;20175;-58
2023/02/04 03:14:58;;;;;;;2.45;0.65;;;14.90;68.10;;;;;;10420787;28;20095;-59
2023/02/04 03:19:59;;;;;;;1.67;0.77;;;14.90;68.00;;;;;;10420175;28;20041;-57
2023/02/04 03:25:00;;;;;;;4.65;1.00;;;14.90;68.00;;;;;;10408566;28;20025;-58
2023/02/04 03:30:01;;;;;;;2.60;1.02;;;14.90;67.80;;;;;;10410564;28;20029;-57
2023/02/04 03:35:02;;;;;;;3.92;0.95;;;14.80;67.90;;;;;;10430548;28;20104;-58
2023/02/04 03:40:03;;;;;;;1.80;0.95;;;14.80;67.80;;;;;;10406899;28;20076;-58
2023/02/04 03:45:04;;;;;;;2.72;1.70;;;14.80;68.40;;;;;;10441013;28;20087;-58
2023/02/04 03:50:05;;;;;;;2.28;0.90;;;14.80;67.70;;;;;;10446537;28;20029;-57
2023/02/04 03:55:06;;;;;;;3.85;1.10;;;14.80;67.60;;;;;;10448512;28;20900;-58
2023/02/04 04:00:08;;;;;;;4.57;2.25;;;14.80;67.60;;;;;;10408789;28;20030;-58
2023/02/04 04:05:10;;;;;;;2.72;0.65;;;14.80;68.30;;;;;;10431480;28;20422;-58
2023/02/04 04:10:11;;;;;;;2.10;0.70;;;14.80;68.80;;;;;;10446515;28;20035;-58
2023/02/04 04:15:11;;;;;;;4.40;1.38;;;14.70;67.70;;;;;;10446555;28;20017;-57
2023/02/04 04:20:12;;;;;;;3.38;1.35;;;14.70;67.40;;;;;;10417457;28;20125;-58
2023/02/04 04:25:13;;;;;;;2.15;0.90;;;14.80;67.40;;;;;;10404874;28;20022;-58
2023/02/04 04:30:13;;;;;;;1.70;0.60;;;14.80;67.50;;;;;;10406131;28;20512;-57
2023/02/04 04:35:14;;;;;;;1.77;1.00;;;15.10;67.00;;;;;;10404705;28;20026;-58
2023/02/04 04:40:15;;;;;;;4.07;1.20;;;15.30;66.30;;;;;;10404524;28;20491;-58
2023/02/04 04:45:16;;;;;;;1.45;0.95;;;15.50;65.60;;;;;;10440462;28;20036;-58
2023/02/04 04:50:16;;;;;;;1.80;0.95;;;15.70;65.00;;;;;;10444529;28;20021;-57
2023/02/04 04:55:17;;;;;;;3.08;1.02;;;15.90;64.40;;;;;;10445286;28;20024;-57
2023/02/04 05:00:20;;;;;;;2.83;0.90;;;16.20;63.80;;;;;;10432621;28;20021;-60
2023/02/04 05:05:20;;;;;;;3.97;0.90;;;16.30;63.50;;;;;;10425633;28;20071;-58
2023/02/04 05:10:21;;;;;;;3.42;0.95;;;16.40;63.20;;;;;;10426687;28;20112;-59
2023/02/04 05:15:21;;;;;;;2.55;0.90;;;16.50;62.90;;;;;;10443033;28;20101;-58
2023/02/04 05:20:23;;;;;;;2.50;0.88;;;16.60;62.70;;;;;;10426451;28;20051;-59
2023/02/04 05:25:24;;;;;;;1.60;0.52;;;16.60;62.50;;;;;;10426464;28;20045;-59
2023/02/04 05:30:25;;;;;;;1.27;0.60;;;16.70;62.50;;;;;;10426565;28;20479;-58
2023/02/04 05:35:25;;;;;;;2.38;0.73;;;16.70;62.40;;;;;;10424144;28;20009;-57
2023/02/04 05:40:26;;;;;;;1.95;0.63;;;16.80;62.40;;;;;;10439381;28;20024;-57
2023/02/04 05:45:27;;;;;;;3.95;1.48;;;16.90;62.20;;;;;;10427334;28;20020;-58
2023/02/04 05:50:27;;;;;;;3.53;1.33;;;16.90;62.10;;;;;;10430626;28;20037;-61
2023/02/04 05:55:28;;;;;;;4.30;0.80;;;16.90;62.10;;;;;;10435245;28;20097;-61
2023/02/04 06:00:29;;;;;;;3.00;1.80;;;16.90;62.20;;;;;;10432582;28;20132;-58
2023/02/04 06:05:30;;;;;;;2.55;0.80;;;16.90;62.30;;;;;;10422415;28;20113;-59
2023/02/04 06:10:31;;;;;;;4.53;0.60;;;16.80;62.50;;;;;;10414214;28;20031;-60
2023/02/04 06:15:31;;;;;;;7.72;1.00;;;16.70;62.90;;;;;;10451520;28;20448;-57
2023/02/04 06:20:32;;;;;;;2.90;1.08;;;16.80;63.30;;;;;;10452804;28;20179;-55
2023/02/04 06:25:33;;;;;;;6.47;0.98;;;16.80;63.70;;;;;;10430530;28;20143;-55
2023/02/04 06:30:34;;;;;;;3.08;0.75;;;16.80;64.90;;;;;;10409550;28;20045;-56
2023/02/04 06:35:36;;;;;;;7.80;1.27;;;16.80;65.80;;;;;;10448013;28;20044;-57
2023/02/04 06:40:37;;;;;;;9.93;1.30;;;16.70;65.90;;;;;;10437211;28;20519;-56
2023/02/04 06:45:37;;;;;;;10.07;1.38;;;16.60;65.40;;;;;;10467708;28;20039;-56
2023/02/04 06:50:38;;;;;;;7.60;1.60;;;16.60;66.30;;;;;;10463082;28;20044;-60
2023/02/04 06:55:39;;;;;;;4.95;1.50;;;16.50;66.20;;;;;;10442658;28;20104;-56
2023/02/04 07:00:39;;;;;;;8.30;1.98;;;16.40;66.50;;;;;;10458374;28;20635;-56
2023/02/04 07:05:40;;;;;;;12.18;2.03;;;16.30;66.40;;;;;;10466378;28;20024;-56
2023/02/04 07:10:41;;;;;;;6.93;1.35;;;16.20;66.90;;;;;;10475161;28;20536;-54
2023/02/04 07:15:41;;;;;;;7.90;1.52;;;16.10;66.80;;;;;;10443289;28;20187;-54
2023/02/04 07:20:42;;;;;;;8.85;1.40;;;16.10;66.70;;;;;;10474550;28;20112;-54
2023/02/04 07:25:43;;;;;;;9.73;1.77;;;16.10;67.30;;;;;;10462689;28;20602;-57
2023/02/04 07:30:43;;;;;;;16.02;3.25;;;16.20;66.70;;;;;;10448937;28;20107;-55
2023/02/04 07:35:44;;;;;;;12.15;3.10;;;16.10;68.00;;;;;;10428060;28;20017;-55
2023/02/04 07:40:45;;;;;;;17.55;3.13;;;16.00;68.30;;;;;;10409974;28;20674;-56
2023/02/04 07:45:45;;;;;;;15.45;2.80;;;15.90;68.80;;;;;;10433481;28;20045;-52
2023/02/04 07:50:46;;;;;;;21.75;3.13;;;15.90;69.10;;;;;;10424025;28;20027;-54
2023/02/04 07:55:47;;;;;;;19.75;5.25;;;15.80;69.50;;;;;;10422834;28;20020;-53
2023/02/04 08:00:48;;;;;;;14.35;2.40;;;15.80;69.60;;;;;;10428506;28;20017;-53
2023/02/04 08:05:48;;;;;;;25.15;3.25;;;15.80;68.80;;;;;;10440917;28;20143;-55
2023/02/04 08:10:49;;;;;;;18.90;2.92;;;16.00;68.90;;;;;;10406161;28;20100;-54
2023/02/04 08:15:50;;;;;;;17.45;3.10;;;15.90;68.40;;;;;;10432052;28;20049;-55
2023/02/04 08:20:51;;;;;;;18.50;2.92;;;15.80;67.70;;;;;;10420710;28;20403;-56
2023/02/04 08:25:52;;;;;;;14.90;2.65;;;15.80;67.60;;;;;;10401402;28;20106;-55
2023/02/04 08:30:52;;;;;;;18.08;3.45;;;15.80;67.60;;;;;;10400943;28;20520;-55
2023/02/04 08:35:53;;;;;;;10.60;2.47;;;15.70;67.60;;;;;;10401241;28;20096;-54
2023/02/04 08:40:54;;;;;;;7.25;1.80;;;15.70;67.60;;;;;;10403977;28;20029;-56
2023/02/04 08:45:54;;;;;;;10.43;2.80;;;15.80;67.90;;;;;;10443291;28;20048;-56
2023/02/04 08:50:55;;;;;;;10.75;1.95;;;15.80;67.10;;;;;;10441707;28;20028;-55
2023/02/04 08:55:56;;;;;;;10.18;2.40;;;15.90;66.70;;;;;;10443412;28;20104;-55
2023/02/04 09:00:56;;;;;;;7.55;2.30;;;16.00;66.40;;;;;;10444424;28;20130;-55
2023/02/04 09:05:57;;;;;;;6.43;1.73;;;16.00;66.40;;;;;;10444960;28;20021;-54
2023/02/04 09:10:58;;;;;;;9.85;2.53;;;16.00;66.40;;;;;;10442507;28;20029;-54
2023/02/04 09:15:58;;;;;;;8.20;2.08;;;16.00;66.20;;;;;;10434524;28;20024;-55
2023/02/04 09:20:59;;;;;;;5.70;1.77;;;16.00;66.00;;;;;;10415003;28;20132;-57
2023/02/04 09:26:00;;;;;;;6.32;1.80;;;16.00;66.10;;;;;;10402935;28;20101;-56
2023/02/04 09:31:01;;;;;;;7.00;2.03;;;16.10;66.00;;;;;;10411207;28;20116;-56
2023/02/04 09:36:01;;;;;;;5.90;2.15;;;16.10;66.00;;;;;;10409659;28;20116;-55
2023/02/04 09:41:07;;;;;;;8.65;2.15;;;16.10;66.00;;;;;;10410578;28;20026;-55
2023/02/04 09:46:23;;;;;;;8.00;3.30;;;16.10;65.70;;;;;;10450464;28;20496;-55
2023/02/04 09:51:31;;;;;;;6.07;1.65;;;16.10;65.80;;;;;;10447862;28;20033;-55
2023/02/04 09:56:32;;;;;;;6.43;1.75;;;16.00;66.00;;;;;;10428234;28;20317;-55
2023/02/04 10:01:33;;;;;;;5.13;1.90;;;16.00;66.10;;;;;;10431548;28;20021;-55
2023/02/04 10:06:34;;;;;;;5.95;2.65;;;15.90;66.30;;;;;;10413275;28;20155;-55
2023/02/04 10:11:38;;;;;;;6.05;1.90;;;15.90;66.40;;;;;;10409145;28;20049;-55
2023/02/04 10:16:42;;;;;;;7.15;2.63;;;15.80;66.30;;;;;;10408614;28;20071;-55
2023/02/04 10:21:46;;;;;;;4.40;1.77;;;15.70;67.60;;;;;;10422131;28;20050;-55
2023/02/04 10:26:47;;;;;;;5.05;1.77;;;15.70;67.80;;;;;;10421333;28;20025;-54
2023/02/04 10:31:49;;;;;;;5.30;1.70;;;15.70;67.80;;;;;;10408653;28;20048;-55
2023/02/04 10:36:56;;;;;;;4.72;1.65;;;15.60;67.90;;;;;;10406939;28;20025;-55
2023/02/04 10:42:00;;;;;;;7.55;2.13;;;15.60;67.90;;;;;;10415633;28;20017;-54
2023/02/04 10:47:17;;;;;;;4.25;2.03;;;15.60;68.80;;;;;;10448153;28;20024;-54
2023/02/04 10:52:20;;;;;;;9.05;1.70;;;15.60;68.20;;;;;;10446018;28;20036;-55
2023/02/04 10:57:25;;;;;;;4.93;1.85;;;15.60;68.10;;;;;;10447550;28;20039;-55
2023/02/04 11:02:46;;;;;;;6.70;1.45;;;15.60;68.30;;;;;;10447618;28;20044;-55
2023/02/04 11:07:48;;;;;;;5.80;1.80;;;15.60;68.20;;;;;;10447707;28;20061;-55
2023/02/04 11:12:52;;;;;;;7.57;2.40;;;15.60;68.20;;;;;;10447242;28;20021;-55
2023/02/04 11:18:04;;;;;;;3.42;1.45;;;15.50;68.20;;;;;;10447558;28;20049;-55
2023/02/04 11:23:26;;;;;;;3.17;1.23;;;15.60;68.30;;;;;;10406058;28;20053;-55
2023/02/04 11:28:26;;;;;;;5.07;1.52;;;15.60;73.90;;;;;;10421693;28;20045;-54
2023/02/04 11:33:39;;;;;;;2.88;1.10;;;15.80;72.70;;;;;;10405510;28;20108;-56
2023/02/04 11:38:48;;;;;;;4.15;1.30;;;15.80;71.90;;;;;;10406362;28;20044;-55
2023/02/04 11:43:54;;;;;;;4.50;1.30;;;15.80;71.60;;;;;;10428935;28;20698;-55
2023/02/04 11:48:57;;;;;;;5.75;1.48;;;15.80;71.50;;;;;;10407486;28;20033;-55
2023/02/04 11:53:58;;;;;;;2.42;0.90;;;15.70;71.10;;;;;;10405583;28;20014;-55
2023/02/04 11:58:59;;;;;;;2.63;1.10;;;15.70;71.00;;;;;;10405205;28;20599;-56
2023/02/04 12:04:05;;;;;;;4.00;1.35;;;15.70;71.10;;;;;;10437355;28;20116;-55
2023/02/04 12:09:21;;;;;;;6.18;1.55;;;15.60;70.70;;;;;;10446807;28;20063;-55
2023/02/04 12:14:32;;;;;;;7.80;1.83;;;15.70;69.50;;;;;;10432878;28;20024;-56
2023/02/04 12:19:34;;;;;;;5.50;1.98;;;15.90;70.30;;;;;;10409219;28;20613;-55
2023/02/04 12:24:35;;;;;;;7.53;2.50;;;16.10;70.10;;;;;;10448786;28;20024;-55
2023/02/04 12:29:35;;;;;;;4.88;1.73;;;16.40;69.10;;;;;;10421084;28;20071;-55
2023/02/04 12:34:36;;;;;;;5.88;1.85;;;16.30;69.20;;;;;;10427712;28;20021;-54
2023/02/04 12:39:37;;;;;;;6.88;1.55;;;16.20;70.10;;;;;;10437051;28;20111;-55
2023/02/04 12:44:37;;;;;;;7.97;2.08;;;16.20;70.00;;;;;;10429925;28;20028;-55
2023/02/04 12:49:38;;;;;;;5.78;1.52;;;16.10;70.20;;;;;;10425413;28;20052;-56
2023/02/04 12:54:39;;;;;;;6.95;1.52;;;16.00;69.80;;;;;;10427900;28;20075;-55
2023/02/04 12:59:40;;;;;;;5.72;1.58;;;16.00;70.50;;;;;;10428998;28;20512;-55
2023/02/04 13:04:41;;;;;;;11.38;2.58;;;16.00;70.60;;;;;;10406920;28;20377;-54
2023/02/04 13:09:41;;;;;;;8.05;1.83;;;16.00;70.80;;;;;;10428789;28;20068;-53
2023/02/04 13:14:42;;;;;;;31.65;5.05;;;16.00;70.20;;;;;;10418852;28;20091;-56
2023/02/04 13:19:43;;;;;;;26.60;4.57;;;15.90;70.70;;;;;;10415916;28;20049;-55
2023/02/04 13:24:44;;;;;;;11.02;2.35;;;15.70;71.50;;;;;;10431870;28;20071;-55
2023/02/04 13:29:44;;;;;;;18.55;3.03;;;15.80;71.00;;;;;;10430647;28;20027;-55
2023/02/04 13:34:45;;;;;;;12.73;4.45;;;15.90;70.70;;;;;;10443072;28;20024;-55
2023/02/04 13:39:46;;;;;;;9.75;2.60;;;15.90;70.80;;;;;;10424102;28;20026;-56
2023/02/04 13:44:46;;;;;;;8.90;1.95;;;16.00;71.00;;;;;;10427333;28;20017;-56
2023/02/04 13:49:47;;;;;;;15.10;2.58;;;16.10;71.00;;;;;;10418161;28;20117;-54
2023/02/04 13:54:48;;;;;;;9.05;2.38;;;16.10;71.20;;;;;;10427270;28;20013;-54
2023/02/04 13:59:49;;;;;;;9.05;1.95;;;16.00;71.20;;;;;;10426569;28;20048;-54
2023/02/04 14:04:49;;;;;;;8.02;1.95;;;15.90;70.90;;;;;;10415091;28;20074;-53
2023/02/04 14:09:50;;;;;;;5.88;1.73;;;15.80;71.10;;;;;;10422555;28;20040;-53
2023/02/04 14:14:51;;;;;;;9.50;2.00;;;15.70;71.10;;;;;;10433768;28;20048;-53
2023/02/04 14:19:51;;;;;;;10.15;2.17;;;15.70;71.00;;;;;;10434102;28;20544;-52
2023/02/04 14:24:52;;;;;;;5.75;2.35;;;15.60;70.90;;;;;;10432878;28;20108;-54
2023/02/04 14:29:53;;;;;;;7.20;1.95;;;15.60;70.80;;;;;;10432961;28;20425;-54
2023/02/04 14:34:53;;;;;;;6.90;1.23;;;15.60;70.80;;;;;;10442201;28;20105;-54
2023/02/04 14:39:54;;;;;;;6.65;1.63;;;15.60;70.70;;;;;;10421984;28;20041;-54
2023/02/04 14:44:55;;;;;;;4.93;1.65;;;15.50;70.50;;;;;;10427581;28;20075;-53
2023/02/04 14:49:56;;;;;;;6.05;1.80;;;15.50;70.40;;;;;;10445199;28;20167;-54
2023/02/04 14:54:58;;;;;;;5.05;1.92;;;15.50;70.30;;;;;;10414637;28;20052;-58
2023/02/04 14:59:58;;;;;;;6.20;1.73;;;15.50;70.30;;;;;;10409638;28;20104;-54
2023/02/04 15:04:59;;;;;;;13.57;2.60;;;15.60;70.10;;;;;;10421386;28;20024;-55
2023/02/04 15:10:00;;;;;;;9.50;2.03;;;15.70;69.60;;;;;;10409382;28;20124;-54
2023/02/04 15:15:00;;;;;;;8.75;2.10;;;15.60;69.40;;;;;;10410152;28;20029;-55
2023/02/04 15:20:02;;;;;;;12.20;2.83;;;15.60;69.30;;;;;;10433697;28;21383;-55
2023/02/04 15:25:04;;;;;;;11.18;3.30;;;15.50;69.20;;;;;;10406093;28;20025;-55
2023/02/04 15:30:05;;;;;;;6.80;2.30;;;15.60;68.70;;;;;;10414424;28;20021;-56
2023/02/04 15:35:07;;;;;;;11.65;2.95;;;15.50;69.70;;;;;;10391978;28;20029;-54
2023/02/04 15:40:09;;;;;;;12.93;2.75;;;15.60;68.60;;;;;;10390275;28;20560;-56
2023/02/04 15:45:10;;;;;;;18.50;2.80;;;15.60;68.10;;;;;;10442083;28;20033;-56
2023/02/04 15:50:13;;;;;;;13.30;3.35;;;15.70;68.40;;;;;;10446038;28;20033;-57
2023/02/04 15:55:14;;;;;;;15.30;3.35;;;15.70;68.70;;;;;;10448167;28;20028;-57
2023/02/04 16:00:15;;;;;;;15.82;3.05;;;15.60;69.20;;;;;;10459318;28;20021;-61
2023/02/04 16:05:16;;;;;;;14.60;2.85;;;15.60;69.70;;;;;;10448659;28;20036;-57
2023/02/04 16:10:18;;;;;;;13.13;3.25;;;15.60;69.60;;;;;;10445853;28;20556;-56
2023/02/04 16:15:18;;;;;;;18.27;3.45;;;15.50;70.00;;;;;;10444749;28;20675;-57
2023/02/04 16:20:19;;;;;;;13.65;3.00;;;15.70;69.10;;;;;;10441364;28;20065;-56
2023/02/04 16:25:21;;;;;;;11.38;2.67;;;15.90;68.40;;;;;;10424387;28;20570;-57
2023/02/04 16:30:22;;;;;;;17.30;3.55;;;15.90;68.80;;;;;;10439578;28;20020;-57
2023/02/04 16:35:22;;;;;;;8.95;3.55;;;16.10;67.80;;;;;;10443747;28;20105;-59
2023/02/04 16:40:23;;;;;;;12.35;4.40;;;16.30;67.30;;;;;;10442080;28;20113;-59
2023/02/04 16:45:24;;;;;;;39.13;8.10;;;16.30;67.60;;;;;;10435334;28;20087;-58
2023/02/04 16:50:24;;;;;;;21.30;6.60;;;16.80;66.50;;;;;;10426720;28;20045;-58
2023/02/04 16:55:27;;;;;;;15.80;5.80;;;17.10;65.40;;;;;;10420992;28;20097;-57
2023/02/04 17:00:28;;;;;;;23.15;5.40;;;17.20;65.70;;;;;;10405333;28;20029;-57
2023/02/04 17:05:29;;;;;;;17.85;6.22;;;17.40;64.90;;;;;;10403871;28;20132;-54
2023/02/04 17:15:49;;;;;;;13.45;4.82;;;17.50;64.70;;;;;;10436765;28;20036;-57
2023/02/04 17:20:50;;;;;;;15.40;4.80;;;17.30;65.00;;;;;;10445599;28;20045;-56
2023/02/04 17:25:50;;;;;;;20.08;5.88;;;17.20;65.40;;;;;;10439867;28;20368;-57
2023/02/04 17:30:51;;;;;;;15.15;5.68;;;17.10;66.00;;;;;;10440228;28;20060;-56
2023/02/04 17:35:52;;;;;;;17.05;4.22;;;17.00;66.30;;;;;;10436280;28;20104;-57
2023/02/04 17:40:55;;;;;;;14.98;4.38;;;16.90;66.60;;;;;;10444008;28;20104;-57
2023/02/04 17:45:56;;;;;;;13.70;4.35;;;16.90;66.70;;;;;;10460676;28;20037;-57
2023/02/04 17:50:56;;;;;;;11.23;4.47;;;16.90;67.00;;;;;;10448680;28;20024;-57
2023/02/04 17:55:57;;;;;;;12.48;4.82;;;16.90;67.00;;;;;;10453259;28;20456;-57
2023/02/04 18:00:58;;;;;;;16.55;3.85;;;16.90;67.10;;;;;;10451204;28;20104;-60
2023/02/04 18:06:13;;;;;;;11.27;3.67;;;16.90;67.30;;;;;;10419222;28;20017;-57
2023/02/04 18:11:27;;;;;;;15.63;4.30;;;16.70;67.60;;;;;;10421609;28;20107;-58
2023/02/04 18:16:32;;;;;;;12.57;3.65;;;16.70;67.80;;;;;;10439273;28;20017;-55
2023/02/04 18:21:35;;;;;;;11.43;4.22;;;16.60;67.80;;;;;;10437212;28;20101;-57
2023/02/04 18:26:47;;;;;;;7.47;3.35;;;16.70;67.60;;;;;;10422298;28;20061;-56
2023/02/04 18:32:03;;;;;;;17.98;4.03;;;16.70;67.50;;;;;;10409477;28;20554;-56
2023/02/04 18:37:26;;;;;;;11.43;3.60;;;16.70;67.40;;;;;;10410207;28;20739;-57
2023/02/04 18:42:27;;;;;;;7.70;3.53;;;16.70;67.40;;;;;;10423797;28;20673;-58
2023/02/04 18:47:31;;;;;;;7.40;3.50;;;16.60;67.20;;;;;;10432107;28;20059;-61
2023/02/04 18:52:36;;;;;;;6.75;3.92;;;16.70;67.20;;;;;;10432207;28;20029;-57
2023/02/04 18:57:38;;;;;;;10.25;3.53;;;16.70;67.00;;;;;;10433277;28;20010;-57
2023/02/04 19:02:59;;;;;;;10.27;4.43;;;16.70;67.30;;;;;;10431657;28;20021;-54
2023/02/04 19:08:02;;;;;;;15.63;3.28;;;16.70;67.30;;;;;;10400007;28;20125;-57
2023/02/04 19:13:21;;;;;;;14.57;3.70;;;16.60;67.30;;;;;;10411372;28;20384;-55
2023/02/04 19:18:36;;;;;;;9.05;3.35;;;16.60;67.30;;;;;;10439292;28;20049;-56
2023/02/04 19:23:37;;;;;;;14.60;3.05;;;16.70;67.30;;;;;;10443329;28;20024;-58
2023/02/04 19:28:38;;;;;;;8.43;3.90;;;16.70;67.10;;;;;;10445982;28;20629;-57
2023/02/04 19:33:44;;;;;;;8.68;3.40;;;16.70;67.20;;;;;;10439247;28;20013;-57
2023/02/04 19:38:46;;;;;;;10.98;2.95;;;16.70;67.10;;;;;;10441704;28;20025;-57
2023/02/04 19:43:47;;;;;;;7.45;3.10;;;16.70;67.20;;;;;;10430244;28;20028;-57
2023/02/04 19:48:48;;;;;;;8.60;3.05;;;16.70;67.20;;;;;;10438303;28;20039;-58
2023/02/04 19:53:55;;;;;;;10.68;2.90;;;16.70;67.30;;;;;;10447097;28;20020;-58
2023/02/04 19:58:56;;;;;;;6.57;3.97;;;16.60;67.40;;;;;;10440469;28;20017;-56
2023/02/04 20:03:57;;;;;;;8.73;3.05;;;16.70;67.30;;;;;;10435426;28;20013;-57
2023/02/04 20:09:21;;;;;;;7.03;3.30;;;16.70;67.30;;;;;;10431386;28;20031;-58
2023/02/04 20:14:26;;;;;;;7.72;3.55;;;16.60;67.50;;;;;;10447992;28;20522;-57
2023/02/04 20:19:29;;;;;;;10.48;2.83;;;16.50;67.70;;;;;;10444575;28;20084;-58
2023/02/04 20:24:35;;;;;;;7.93;3.25;;;16.40;67.90;;;;;;10453070;28;20125;-56
2023/02/04 20:29:36;;;;;;;8.75;2.65;;;16.30;68.00;;;;;;10441040;28;20029;-58
2023/02/04 20:34:36;;;;;;;6.80;2.80;;;16.30;68.20;;;;;;10439357;28;20146;-58
2023/02/04 20:39:39;;;;;;;8.30;3.15;;;16.20;68.20;;;;;;10441020;28;20095;-56
2023/02/04 20:44:41;;;;;;;7.05;3.33;;;16.20;68.50;;;;;;10439394;28;20720;-56
2023/02/04 20:49:51;;;;;;;5.25;2.88;;;16.10;68.50;;;;;;10441296;28;20515;-55
2023/02/04 20:54:54;;;;;;;8.50;2.88;;;16.00;68.60;;;;;;10442352;28;20082;-56
2023/02/04 20:59:54;;;;;;;5.32;2.83;;;16.00;68.70;;;;;;10442014;28;20125;-56
2023/02/04 21:04:55;;;;;;;7.47;3.10;;;15.90;68.70;;;;;;10442830;28;20116;-54
2023/02/04 21:09:56;;;;;;;8.00;2.75;;;15.90;68.70;;;;;;10442637;28;20102;-56
2023/02/04 21:14:57;;;;;;;7.50;2.80;;;15.80;68.60;;;;;;10442518;28;20062;-57
2023/02/04 21:19:58;;;;;;;7.30;3.45;;;15.80;68.80;;;;;;10429751;28;20103;-58
2023/02/04 21:24:58;;;;;;;4.85;2.92;;;15.80;68.80;;;;;;10405585;28;20100;-58
2023/02/04 21:29:59;;;;;;;6.28;4.05;;;15.70;68.70;;;;;;10425035;28;20072;-56
2023/02/04 21:34:59;;;;;;;6.78;4.30;;;15.70;68.80;;;;;;10424671;28;20109;-57
2023/02/04 21:40:00;;;;;;;11.35;3.78;;;15.70;68.70;;;;;;10409501;28;20539;-56
2023/02/04 21:45:02;;;;;;;6.10;4.20;;;15.60;68.70;;;;;;10443583;28;20108;-56
2023/02/04 21:50:02;;;;;;;5.90;3.85;;;15.60;68.60;;;;;;10447408;28;20048;-57
2023/02/04 21:55:04;;;;;;;8.02;3.60;;;15.60;68.60;;;;;;10448888;28;20032;-56
2023/02/04 22:00:07;;;;;;;9.27;5.15;;;15.60;68.60;;;;;;10449632;28;20029;-56
2023/02/04 22:05:09;;;;;;;7.07;3.17;;;15.50;68.60;;;;;;10448317;28;20032;-55
2023/02/04 22:10:16;;;;;;;10.95;3.67;;;15.50;68.70;;;;;;10449331;28;20359;-57
2023/02/04 22:15:19;;;;;;;5.53;3.55;;;15.50;68.70;;;;;;10449312;28;20029;-55
2023/02/04 22:20:24;;;;;;;7.28;3.63;;;15.50;68.70;;;;;;10441043;28;20045;-57
2023/02/04 22:25:24;;;;;;;5.72;3.30;;;15.40;68.60;;;;;;10447778;28;20492;-57
2023/02/04 22:30:25;;;;;;;6.63;3.53;;;15.40;68.60;;;;;;10447510;28;20143;-55
2023/02/04 22:35:28;;;;;;;8.57;3.55;;;15.40;68.60;;;;;;10412782;28;20530;-57
2023/02/04 22:40:29;;;;;;;6.25;4.40;;;15.40;68.80;;;;;;10406224;28;20044;-56
2023/02/04 22:45:30;;;;;;;5.03;2.95;;;15.30;68.70;;;;;;10444405;28;20027;-57
2023/02/04 22:50:31;;;;;;;6.80;3.30;;;15.40;68.80;;;;;;10444580;28;20143;-56
2023/02/04 22:55:31;;;;;;;5.45;3.55;;;15.30;68.80;;;;;;10446793;28;20025;-58
2023/02/04 23:00:32;;;;;;;7.95;4.63;;;15.30;68.80;;;;;;10446600;28;20037;-56
2023/02/04 23:05:33;;;;;;;7.60;3.85;;;15.20;68.50;;;;;;10446368;28;20102;-55
2023/02/04 23:10:33;;;;;;;8.30;3.95;;;15.30;68.50;;;;;;10446013;28;20120;-56
2023/02/04 23:15:34;;;;;;;8.50;4.65;;;15.20;68.50;;;;;;10429169;28;20033;-56
2023/02/04 23:20:37;;;;;;;6.93;4.10;;;15.20;68.30;;;;;;10414630;28;20099;-56
2023/02/04 23:25:37;;;;;;;10.40;4.50;;;15.20;68.30;;;;;;10405278;28;20060;-57
2023/02/04 23:30:38;;;;;;;8.40;4.57;;;15.20;68.30;;;;;;10403850;28;20457;-57
2023/02/04 23:35:38;;;;;;;7.53;4.07;;;15.20;68.30;;;;;;10387194;28;20024;-55
2023/02/04 23:40:39;;;;;;;7.95;4.35;;;15.20;68.20;;;;;;10404645;28;20017;-57
2023/02/04 23:45:40;;;;;;;8.40;4.60;;;15.10;68.20;;;;;;10442270;28;20024;-56
2023/02/04 23:50:41;;;;;;;5.75;3.60;;;15.10;68.20;;;;;;10442132;28;20116;-57
2023/02/04 23:55:41;;;;;;;6.00;3.67;;;15.20;68.40;;;;;;10443993;28;20115;-56
